Wetterstation Vordersexau
Wetterdaten: Woche 24.03.14 - 30.03.14 (KW13)
Datum Zeit Temp. A. Feuchte A. Luftdruck Regen Wind Richtung Taupunkt Windchill Windben
24.03.2014 00:00 3,2 C 84 % 981,6 hPa 0,0 l/m 0,0 km/h O-SO 0,8 C 3,2 C 0,0 km/h
24.03.2014 01:00 2,9 C 85 % 981,6 hPa 0,0 l/m 0,0 km/h O-SO 0,6 C 2,9 C 0,0 km/h
24.03.2014 02:00 2,9 C 85 % 981,9 hPa 0,0 l/m 0,0 km/h SO 0,6 C 2,9 C 0,0 km/h
24.03.2014 03:00 3,3 C 84 % 981,9 hPa 0,0 l/m 0,0 km/h S-SO 0,9 C 3,3 C 0,0 km/h
24.03.2014 04:00 3,3 C 84 % 982,3 hPa 0,0 l/m 0,0 km/h S 0,9 C 3,3 C 0,0 km/h
24.03.2014 05:00 2,5 C 84 % 982,7 hPa 0,0 l/m 0,0 km/h O-SO 0,1 C 2,5 C 0,0 km/h
24.03.2014 06:00 2,9 C 84 % 982,9 hPa 0,0 l/m 0,0 km/h O-SO 0,5 C 2,9 C 0,0 km/h
24.03.2014 07:00 3,4 C 83 % 983,5 hPa 0,0 l/m 0,0 km/h SW 0,8 C 3,4 C 0,0 km/h
24.03.2014 08:00 4,4 C 85 % 983,9 hPa 0,0 l/m 3,9 km/h W-NW 2,1 C 4,4 C 2,2 km/h
24.03.2014 09:00 4,8 C 85 % 984,3 hPa 0,0 l/m 0,0 km/h N-NW 2,5 C 4,8 C 0,0 km/h
24.03.2014 10:00 4,3 C 84 % 984,6 hPa 0,2 l/m 0,0 km/h SO 1,8 C 4,3 C 0,0 km/h
24.03.2014 11:00 11,8 C 76 % 984,6 hPa 0,0 l/m 3,2 km/h O-SO 7,7 C 11,8 C 1,8 km/h
24.03.2014 12:00 9,1 C 72 % 984,2 hPa 0,0 l/m 0,0 km/h W 4,3 C 9,1 C 0,0 km/h
24.03.2014 13:00 6,2 C 74 % 984,3 hPa 0,0 l/m 5,8 km/h S-SO 1,9 C 6,2 C 3,2 km/h
24.03.2014 14:00 10,9 C 70 % 983,5 hPa 0,2 l/m 12,3 km/h N-NO 5,6 C 7,4 C 6,8 km/h
24.03.2014 15:00 11,1 C 57 % 983,3 hPa 0,0 l/m 0,0 km/h N 2,9 C 11,1 C 0,0 km/h
24.03.2014 16:00 6,9 C 73 % 983,4 hPa 0,0 l/m 0,0 km/h S 2,4 C 6,9 C 0,0 km/h
24.03.2014 17:00 4,8 C 82 % 983,6 hPa 0,2 l/m 11,7 km/h SO 2,0 C 0,7 C 6,5 km/h
24.03.2014 18:00 7,3 C 73 % 983,6 hPa 0,0 l/m 0,0 km/h SO 2,8 C 7,3 C 0,0 km/h
24.03.2014 19:00 3,3 C 81 % 983,9 hPa 0,0 l/m 0,0 km/h O-NO 0,4 C 3,3 C 0,0 km/h
24.03.2014 20:00 1,4 C 84 % 984,1 hPa 0,0 l/m 0,0 km/h O-NO -1,0 C 1,4 C 0,0 km/h
24.03.2014 21:00 0,6 C 85 % 984,3 hPa 0,0 l/m 0,0 km/h O-SO -1,6 C 0,6 C 0,0 km/h
24.03.2014 22:00 -0,2 C 85 % 984,1 hPa 0,0 l/m 1,8 km/h SO -2,4 C -0,2 C 1,8 km/h
24.03.2014 23:00 -0,4 C 85 % 984,2 hPa 0,0 l/m 0,0 km/h O-SO -2,6 C -0,4 C 0,0 km/h
25.03.2014 00:00 -0,4 C 84 % 984,0 hPa 0,0 l/m 0,0 km/h O-SO -2,8 C -0,4 C 0,0 km/h
25.03.2014 01:00 -0,1 C 84 % 983,7 hPa 0,0 l/m 0,0 km/h O-SO -2,5 C -0,1 C 0,0 km/h
25.03.2014 02:00 -0,7 C 83 % 983,0 hPa 0,0 l/m 0,0 km/h SO -3,2 C -0,7 C 0,0 km/h
25.03.2014 03:00 -1,0 C 83 % 982,7 hPa 0,0 l/m 0,0 km/h O-SO -3,5 C -1,0 C 0,0 km/h
25.03.2014 04:00 -1,6 C 83 % 982,3 hPa 0,0 l/m 0,0 km/h O-SO -4,1 C -1,6 C 0,0 km/h
25.03.2014 05:00 -1,7 C 83 % 981,9 hPa 0,0 l/m 0,0 km/h S-SO -4,2 C -1,7 C 0,0 km/h
25.03.2014 06:00 -1,8 C 83 % 981,8 hPa 0,0 l/m 0,0 km/h N -4,3 C -1,8 C 0,0 km/h
25.03.2014 07:00 -0,7 C 80 % 981,7 hPa 0,0 l/m 0,0 km/h NO -3,7 C -0,7 C 0,0 km/h
25.03.2014 08:00 5,3 C 69 % 981,4 hPa 0,0 l/m 0,0 km/h W-NW 0,1 C 5,3 C 0,0 km/h
25.03.2014 09:00 8,1 C 76 % 981,2 hPa 0,0 l/m 0,0 km/h W 4,1 C 8,1 C 0,0 km/h
25.03.2014 10:00 13,4 C 60 % 980,6 hPa 0,0 l/m 0,0 km/h W 5,8 C 13,4 C 0,0 km/h
25.03.2014 11:00 15,6 C 51 % 979,9 hPa 0,0 l/m 1,3 km/h SO 5,5 C 15,6 C 0,7 km/h
25.03.2014 12:00 14,3 C 48 % 979,5 hPa 0,0 l/m 1,9 km/h O-SO 3,4 C 14,3 C 1,1 km/h
25.03.2014 13:00 11,3 C 51 % 978,8 hPa 0,0 l/m 5,8 km/h S-SO 1,5 C 11,3 C 3,2 km/h
25.03.2014 14:00 12,1 C 51 % 978,4 hPa 0,0 l/m 0,0 km/h O-SO 2,3 C 12,1 C 0,0 km/h
25.03.2014 15:00 9,6 C 58 % 978,4 hPa 0,0 l/m 0,0 km/h W-SW 1,8 C 9,6 C 0,0 km/h
25.03.2014 16:00 11,8 C 49 % 977,9 hPa 0,0 l/m 1,3 km/h W-SW 1,4 C 11,8 C 0,7 km/h
25.03.2014 17:00 11,2 C 57 % 977,7 hPa 0,0 l/m 0,0 km/h NO 3,0 C 11,2 C 0,0 km/h
25.03.2014 18:00 8,5 C 59 % 978,1 hPa 0,0 l/m 0,0 km/h O-SO 1,0 C 8,5 C 0,0 km/h
25.03.2014 19:00 5,1 C 73 % 978,4 hPa 0,0 l/m 0,0 km/h O-SO 0,7 C 5,1 C 0,0 km/h
25.03.2014 20:00 3,3 C 79 % 978,9 hPa 0,0 l/m 0,0 km/h N-NO 0,0 C 3,3 C 0,0 km/h
25.03.2014 21:00 2,3 C 81 % 979,0 hPa 0,0 l/m 0,0 km/h O -0,6 C 2,3 C 0,0 km/h
25.03.2014 22:00 1,6 C 83 % 979,3 hPa 0,0 l/m 0,0 km/h SO -1,0 C 1,6 C 0,0 km/h
25.03.2014 23:00 1,3 C 83 % 979,2 hPa 0,0 l/m 10,1 km/h O-SO -1,3 C -2,1 C 10,1 km/h
26.03.2014 00:00 0,4 C 84 % 979,5 hPa 0,0 l/m 1,1 km/h O-SO -2,0 C 0,4 C 1,1 km/h
26.03.2014 01:00 0,3 C 84 % 979,1 hPa 0,0 l/m 7,2 km/h N-NO -2,1 C -0,5 C 7,2 km/h
26.03.2014 02:00 0,6 C 84 % 979,1 hPa 0,0 l/m 0,0 km/h SO -1,8 C 0,6 C 0,0 km/h
26.03.2014 03:00 -0,7 C 84 % 979,3 hPa 0,0 l/m 0,0 km/h SO -3,1 C -0,7 C 0,0 km/h
26.03.2014 04:00 0,1 C 84 % 979,5 hPa 0,0 l/m 0,0 km/h N-NO -2,3 C 0,1 C 0,0 km/h
26.03.2014 05:00 -1,4 C 85 % 979,9 hPa 0,0 l/m 0,0 km/h N-NO -3,6 C -1,4 C 0,0 km/h
26.03.2014 06:00 -2,7 C 85 % 980,3 hPa 0,0 l/m 0,0 km/h N-NO -4,9 C -2,7 C 0,0 km/h
26.03.2014 07:00 -1,4 C 84 % 980,9 hPa 0,0 l/m 0,0 km/h W-NW -3,7 C -1,4 C 0,0 km/h
26.03.2014 08:00 6,3 C 84 % 981,5 hPa 0,0 l/m 0,0 km/h W 3,8 C 6,3 C 0,0 km/h
26.03.2014 09:00 8,8 C 68 % 981,9 hPa 0,0 l/m 0,0 km/h NW 3,2 C 8,8 C 0,0 km/h
26.03.2014 10:00 13,6 C 57 % 981,8 hPa 0,0 l/m 1,3 km/h W 5,2 C 13,6 C 0,7 km/h
26.03.2014 11:00 16,4 C 48 % 981,4 hPa 0,0 l/m 0,0 km/h SO 5,4 C 16,4 C 0,0 km/h
26.03.2014 12:00 16,8 C 44 % 980,9 hPa 0,0 l/m 19,4 km/h O 4,5 C 12,2 C 10,8 km/h
26.03.2014 13:00 15,1 C 44 % 980,8 hPa 0,0 l/m 0,0 km/h N-NO 2,9 C 15,1 C 0,0 km/h
26.03.2014 14:00 13,1 C 49 % 980,7 hPa 0,0 l/m 0,0 km/h N-NW 2,6 C 13,1 C 0,0 km/h
26.03.2014 15:00 14,1 C 45 % 980,4 hPa 0,0 l/m 0,0 km/h O-SO 2,4 C 14,1 C 0,0 km/h
26.03.2014 16:00 10,3 C 52 % 980,7 hPa 0,0 l/m 20,7 km/h NO 0,9 C 3,5 C 11,5 km/h
26.03.2014 17:00 10,8 C 52 % 981,1 hPa 0,0 l/m 0,0 km/h NO 1,3 C 10,8 C 0,0 km/h
26.03.2014 18:00 8,7 C 59 % 981,3 hPa 0,0 l/m 0,0 km/h O-NO 1,1 C 8,7 C 0,0 km/h
26.03.2014 19:00 6,1 C 64 % 981,7 hPa 0,0 l/m 0,0 km/h O-SO -0,2 C 6,1 C 0,0 km/h
26.03.2014 20:00 4,6 C 72 % 982,1 hPa 0,0 l/m 0,0 km/h O-SO -0,0 C 4,6 C 0,0 km/h
26.03.2014 21:00 3,2 C 77 % 981,9 hPa 0,0 l/m 0,0 km/h O -0,4 C 3,2 C 0,0 km/h
26.03.2014 22:00 2,4 C 80 % 981,9 hPa 0,0 l/m 0,0 km/h NO -0,7 C 2,4 C 0,0 km/h
26.03.2014 23:00 1,8 C 82 % 981,7 hPa 0,0 l/m 0,0 km/h O-SO -0,9 C 1,8 C 0,0 km/h
27.03.2014 00:00 1,5 C 83 % 981,5 hPa 0,0 l/m 0,0 km/h NO -1,1 C 1,5 C 0,0 km/h
27.03.2014 01:00 0,8 C 84 % 981,2 hPa 0,0 l/m 0,0 km/h SO -1,6 C 0,8 C 0,0 km/h
27.03.2014 02:00 0,1 C 84 % 981,3 hPa 0,0 l/m 0,0 km/h O-SO -2,3 C 0,1 C 0,0 km/h
27.03.2014 03:00 -0,6 C 85 % 981,0 hPa 0,0 l/m 0,0 km/h O-SO -2,8 C -0,6 C 0,0 km/h
27.03.2014 04:00 -1,0 C 84 % 981,0 hPa 0,0 l/m 0,0 km/h O -3,4 C -1,0 C 0,0 km/h
27.03.2014 05:00 -1,2 C 84 % 981,2 hPa 0,0 l/m 0,0 km/h NO -3,5 C -1,2 C 0,0 km/h
27.03.2014 06:00 -1,8 C 85 % 981,4 hPa 0,0 l/m 0,0 km/h SO -4,0 C -1,8 C 0,0 km/h
27.03.2014 07:00 -0,6 C 83 % 981,6 hPa 0,0 l/m 0,0 km/h O-SO -3,1 C -0,6 C 0,0 km/h
27.03.2014 08:00 5,5 C 81 % 981,6 hPa 0,0 l/m 0,0 km/h SW 2,5 C 5,5 C 0,0 km/h
27.03.2014 09:00 10,6 C 67 % 981,5 hPa 0,0 l/m 0,0 km/h W-SW 4,7 C 10,6 C 0,0 km/h
27.03.2014 10:00 14,4 C 56 % 981,3 hPa 0,0 l/m 0,0 km/h S 5,7 C 14,4 C 0,0 km/h
27.03.2014 11:00 16,3 C 51 % 980,8 hPa 0,0 l/m 0,0 km/h N 6,1 C 16,3 C 0,0 km/h
27.03.2014 12:00 17,0 C 47 % 980,4 hPa 0,0 l/m 0,0 km/h NW 5,6 C 17,0 C 0,0 km/h
27.03.2014 13:00 16,4 C 47 % 979,9 hPa 0,0 l/m 0,0 km/h W-NW 5,1 C 16,4 C 0,0 km/h
27.03.2014 14:00 17,8 C 48 % 979,4 hPa 0,0 l/m 5,8 km/h NW 6,6 C 17,8 C 3,2 km/h
27.03.2014 15:00 18,5 C 45 % 979,3 hPa 0,0 l/m 0,0 km/h W-NW 6,3 C 18,5 C 0,0 km/h
27.03.2014 16:00 19,3 C 43 % 978,8 hPa 0,0 l/m 1,3 km/h NW 6,4 C 19,3 C 0,7 km/h
27.03.2014 17:00 16,7 C 46 % 979,1 hPa 0,0 l/m 0,0 km/h W 5,0 C 16,7 C 0,0 km/h
27.03.2014 18:00 11,4 C 59 % 979,6 hPa 0,0 l/m 0,0 km/h O-SO 3,7 C 11,4 C 0,0 km/h
27.03.2014 19:00 8,1 C 69 % 980,2 hPa 0,0 l/m 0,0 km/h O-SO 2,8 C 8,1 C 0,0 km/h
27.03.2014 20:00 7,1 C 75 % 980,8 hPa 0,0 l/m 0,0 km/h O-NO 3,0 C 7,1 C 0,0 km/h
27.03.2014 21:00 5,8 C 78 % 981,3 hPa 0,0 l/m 0,0 km/h O-SO 2,3 C 5,8 C 0,0 km/h
27.03.2014 22:00 5,1 C 81 % 981,6 hPa 0,0 l/m 0,0 km/h O-SO 2,1 C 5,1 C 0,0 km/h
27.03.2014 23:00 4,8 C 82 % 981,6 hPa 0,0 l/m 2,2 km/h N-NO 2,0 C 4,8 C 2,2 km/h
28.03.2014 00:00 3,8 C 82 % 981,9 hPa 0,0 l/m 0,0 km/h N-NO 1,0 C 3,8 C 0,0 km/h
28.03.2014 01:00 2,5 C 84 % 982,2 hPa 0,0 l/m 0,0 km/h NO 0,1 C 2,5 C 0,0 km/h
28.03.2014 02:00 2,3 C 84 % 982,7 hPa 0,0 l/m 0,0 km/h O-SO -0,1 C 2,3 C 0,0 km/h
28.03.2014 03:00 1,1 C 84 % 983,2 hPa 0,0 l/m 0,0 km/h O-NO -1,3 C 1,1 C 0,0 km/h
28.03.2014 04:00 0,6 C 85 % 983,6 hPa 0,0 l/m 0,0 km/h O-NO -1,6 C 0,6 C 0,0 km/h
28.03.2014 05:00 0,4 C 84 % 984,1 hPa 0,0 l/m 0,0 km/h O-NO -2,0 C 0,4 C 0,0 km/h
28.03.2014 06:00 -0,1 C 84 % 984,6 hPa 0,0 l/m 0,0 km/h O-NO -2,5 C -0,1 C 0,0 km/h
28.03.2014 07:00 1,5 C 82 % 985,2 hPa 0,0 l/m 0,0 km/h SO -1,2 C 1,5 C 0,0 km/h
28.03.2014 08:00 8,5 C 84 % 985,7 hPa 0,0 l/m 0,0 km/h S 6,0 C 8,5 C 0,0 km/h
28.03.2014 09:00 13,4 C 64 % 985,8 hPa 0,0 l/m 0,0 km/h N-NO 6,7 C 13,4 C 0,0 km/h
28.03.2014 10:00 17,6 C 51 % 986,0 hPa 0,0 l/m 1,9 km/h W 7,3 C 17,6 C 1,1 km/h
28.03.2014 11:00 19,3 C 47 % 986,2 hPa 0,0 l/m 0,0 km/h S-SO 7,7 C 19,3 C 0,0 km/h
28.03.2014 12:00 19,4 C 47 % 985,8 hPa 0,0 l/m 3,2 km/h SW 7,8 C 19,4 C 1,8 km/h
28.03.2014 13:00 20,1 C 46 % 985,5 hPa 0,0 l/m 0,0 km/h W 8,1 C 20,1 C 0,0 km/h
28.03.2014 14:00 21,2 C 42 % 985,2 hPa 0,0 l/m 8,4 km/h W 7,8 C 20,5 C 4,7 km/h
28.03.2014 15:00 23,4 C 37 % 985,1 hPa 0,0 l/m 0,0 km/h N 7,9 C 23,4 C 0,0 km/h
28.03.2014 16:00 24,1 C 34 % 984,9 hPa 0,0 l/m 0,0 km/h W 7,2 C 24,1 C 0,0 km/h
28.03.2014 17:00 22,2 C 35 % 984,9 hPa 0,0 l/m 0,0 km/h W-NW 6,0 C 22,2 C 0,0 km/h
28.03.2014 18:00 15,4 C 46 % 985,5 hPa 0,0 l/m 0,0 km/h W-NW 3,8 C 15,4 C 0,0 km/h
28.03.2014 19:00 10,2 C 61 % 986,2 hPa 0,0 l/m 0,0 km/h SO 3,0 C 10,2 C 0,0 km/h
28.03.2014 20:00 8,4 C 69 % 986,9 hPa 0,0 l/m 0,0 km/h O-SO 3,0 C 8,4 C 0,0 km/h
28.03.2014 21:00 7,5 C 75 % 987,1 hPa 0,0 l/m 0,0 km/h NO 3,4 C 7,5 C 0,0 km/h
28.03.2014 22:00 6,4 C 78 % 987,9 hPa 0,0 l/m 0,0 km/h N-NO 2,8 C 6,4 C 0,0 km/h
28.03.2014 23:00 6,6 C 78 % 988,4 hPa 0,0 l/m 0,0 km/h O-SO 3,0 C 6,6 C 0,0 km/h
29.03.2014 00:00 6,7 C 77 % 988,2 hPa 0,0 l/m 9,7 km/h O-SO 3,0 C 4,2 C 9,7 km/h
29.03.2014 01:00 6,0 C 77 % 988,2 hPa 0,0 l/m 0,0 km/h O 2,3 C 6,0 C 0,0 km/h
29.03.2014 02:00 5,9 C 78 % 988,3 hPa 0,0 l/m 0,0 km/h O-SO 2,4 C 5,9 C 0,0 km/h
29.03.2014 03:00 3,2 C 79 % 988,5 hPa 0,0 l/m 0,0 km/h N-NO -0,1 C 3,2 C 0,0 km/h
29.03.2014 04:00 2,4 C 83 % 988,9 hPa 0,0 l/m 0,0 km/h O -0,2 C 2,4 C 0,0 km/h
29.03.2014 05:00 1,3 C 84 % 989,0 hPa 0,0 l/m 0,0 km/h N-NO -1,1 C 1,3 C 0,0 km/h
29.03.2014 06:00 0,9 C 84 % 989,0 hPa 0,0 l/m 0,0 km/h N-NO -1,5 C 0,9 C 0,0 km/h
29.03.2014 07:00 2,4 C 83 % 989,7 hPa 0,0 l/m 0,0 km/h N-NW -0,2 C 2,4 C 0,0 km/h
29.03.2014 08:00 11,9 C 74 % 989,5 hPa 0,0 l/m 0,0 km/h W 7,4 C 11,9 C 0,0 km/h
29.03.2014 09:00 13,4 C 60 % 989,7 hPa 0,0 l/m 3,2 km/h NW 5,8 C 13,4 C 1,8 km/h
29.03.2014 10:00 18,1 C 52 % 989,8 hPa 0,0 l/m 0,0 km/h W-SW 8,1 C 18,1 C 0,0 km/h
29.03.2014 11:00 19,9 C 47 % 989,6 hPa 0,0 l/m 10,4 km/h SW 8,3 C 18,4 C 5,8 km/h
29.03.2014 12:00 20,9 C 44 % 989,2 hPa 0,0 l/m 7,8 km/h SW 8,2 C 20,4 C 4,3 km/h
29.03.2014 13:00 20,9 C 46 % 988,7 hPa 0,0 l/m 5,2 km/h W-SW 8,8 C 20,9 C 2,9 km/h
29.03.2014 14:00 21,3 C 46 % 987,7 hPa 0,0 l/m 2,6 km/h W-SW 9,2 C 21,3 C 1,4 km/h
29.03.2014 15:00 26,8 C 37 % 987,0 hPa 0,0 l/m 1,3 km/h NW 10,9 C 26,8 C 0,7 km/h
29.03.2014 16:00 26,1 C 35 % 986,6 hPa 0,0 l/m 0,0 km/h N-NW 9,4 C 26,1 C 0,0 km/h
29.03.2014 17:00 27,2 C 34 % 985,9 hPa 0,0 l/m 0,0 km/h W 10,0 C 27,2 C 0,0 km/h
29.03.2014 18:00 21,3 C 43 % 986,0 hPa 0,0 l/m 0,0 km/h W 8,2 C 21,3 C 0,0 km/h
29.03.2014 19:00 12,5 C 62 % 986,5 hPa 0,0 l/m 0,0 km/h SO 5,4 C 12,5 C 0,0 km/h
29.03.2014 20:00 10,3 C 70 % 986,9 hPa 0,0 l/m 0,0 km/h SO 5,1 C 10,3 C 0,0 km/h
29.03.2014 21:00 10,3 C 70 % 986,9 hPa 0,0 l/m 0,0 km/h SO 5,1 C 10,3 C 0,0 km/h
29.03.2014 22:00 8,6 C 73 % 987,0 hPa 0,0 l/m 0,0 km/h O-NO 4,0 C 8,6 C 0,0 km/h
29.03.2014 23:00 7,8 C 75 % 987,1 hPa 0,0 l/m 0,0 km/h O 3,7 C 7,8 C 0,0 km/h
30.03.2014 00:00 8,3 C 72 % 987,0 hPa 0,0 l/m 0,0 km/h O 3,6 C 8,3 C 0,0 km/h
30.03.2014 01:00 7,4 C 73 % 987,1 hPa 0,0 l/m 0,0 km/h N-NO 2,9 C 7,4 C 0,0 km/h
30.03.2014 02:00 5,2 C 77 % 987,3 hPa 0,0 l/m 0,0 km/h NO 1,5 C 5,2 C 0,0 km/h
30.03.2014 03:00 3,6 C 80 % 987,3 hPa 0,0 l/m 0,0 km/h NO 0,5 C 3,6 C 0,0 km/h
30.03.2014 04:00 4,1 C 82 % 987,0 hPa 0,0 l/m 0,0 km/h N-NO 1,3 C 4,1 C 0,0 km/h
30.03.2014 05:00 3,6 C 82 % 986,9 hPa 0,0 l/m 0,0 km/h N-NO 0,8 C 3,6 C 0,0 km/h
30.03.2014 06:00 2,6 C 84 % 987,3 hPa 0,0 l/m 0,0 km/h N-NO 0,2 C 2,6 C 0,0 km/h
30.03.2014 07:00 2,1 C 84 % 987,3 hPa 0,0 l/m 0,0 km/h NO -0,3 C 2,1 C 0,0 km/h
30.03.2014 08:00 3,6 C 84 % 987,5 hPa 0,0 l/m 0,0 km/h NO 1,2 C 3,6 C 0,0 km/h
30.03.2014 09:00 11,6 C 78 % 987,5 hPa 0,0 l/m 0,0 km/h N-NW 7,9 C 11,6 C 0,0 km/h
30.03.2014 10:00 15,9 C 55 % 987,7 hPa 0,0 l/m 0,0 km/h W 6,9 C 15,9 C 0,0 km/h
30.03.2014 11:00 19,3 C 47 % 987,5 hPa 0,0 l/m 0,0 km/h W 7,7 C 19,3 C 0,0 km/h
30.03.2014 12:00 22,8 C 40 % 987,4 hPa 0,0 l/m 0,0 km/h N 8,5 C 22,8 C 0,0 km/h
30.03.2014 13:00 23,8 C 39 % 986,6 hPa 0,0 l/m 0,0 km/h N-NO 9,0 C 23,8 C 0,0 km/h
30.03.2014 14:00 23,9 C 39 % 986,2 hPa 0,0 l/m 0,0 km/h W-SW 9,1 C 23,9 C 0,0 km/h
30.03.2014 15:00 25,4 C 37 % 985,7 hPa 0,0 l/m 0,0 km/h W 9,6 C 25,4 C 0,0 km/h
30.03.2014 16:00 27,9 C 29 % 984,9 hPa 0,0 l/m 0,0 km/h W-NW 8,2 C 27,9 C 0,0 km/h
30.03.2014 17:00 23,8 C 32 % 984,3 hPa 0,0 l/m 0,0 km/h W 6,1 C 23,8 C 0,0 km/h
30.03.2014 18:00 20,8 C 38 % 984,4 hPa 0,0 l/m 0,0 km/h W 6,0 C 20,8 C 0,0 km/h
30.03.2014 19:00 16,9 C 50 % 984,6 hPa 0,0 l/m 0,0 km/h SO 6,4 C 16,9 C 0,0 km/h
30.03.2014 20:00 12,0 C 60 % 984,9 hPa 0,0 l/m 0,0 km/h O-SO 4,5 C 12,0 C 0,0 km/h
30.03.2014 21:00 10,4 C 68 % 985,5 hPa 0,0 l/m 0,0 km/h O-NO 4,8 C 10,4 C 0,0 km/h
30.03.2014 22:00 10,0 C 72 % 985,4 hPa 0,0 l/m 0,0 km/h S-SO 5,2 C 10,0 C 0,0 km/h
30.03.2014 23:00 8,9 C 73 % 985,5 hPa 0,0 l/m 0,0 km/h O 4,3 C 8,9 C 0,0 km/h
Min-Datum _ 26.03.14 30.03.14 25.03.14 - 24.03.14 - 26.03.14 26.03.14 24.03.14
_ Min-Zeit 06:19 16:19 17:19 - 00:19 - 06:19 06:19 00:19
Minimum _ -2,7 C 29 % 977,7 hPa - 0,0 km/h - -4,9 C -2,7 C 0,0 km/h
Max-Datum _ 30.03.14 24.03.14 29.03.14 24.03.14 26.03.14 - 29.03.14 30.03.14 26.03.14
_ Max-Zeit 16:19 01:19 10:19 10:19 16:19 - 15:19 16:19 16:19
Maximum _ 27,9 C 85 % 989,8 hPa 0,2 l/m 20,7 km/h
NO
- 10,9 C 27,9 C 11,5 km/h
NO
Durchschnitt _ 8,6 C 68 % 983,6 hPa #0,5 l/m 1,0 km/h O-SO 2,4 C 8,5 C 0,7 km/h
www.sexauwetter.de